ADDS METAR Data INFO
IDs: Format: Raw Decoded Include TAF

Data at: 0353 UTC 18 Oct 2017

KHWO 180253Z AUTO 06005KT 10SM FEW025 28/23 A3004 RMK AO2 SLP171 T02780228 51014
KHWO 180153Z AUTO 06006KT 10SM FEW022 SCT055 28/23 A3002 RMK AO2 SLP167 T02780228
KHWO 180123Z AUTO 06006KT 10SM SCT024 SCT032 28/23 A3002 RMK AO2 T02780228
KHWO 180105Z AUTO 07006KT 10SM BKN023 BKN028 BKN034 28/23 A3001 RMK AO2 T02780228
KHWO 180053Z 07006KT 10SM SCT025 28/23 A3001 RMK AO2 SLP163 T02780233
KHWO 172353Z 06007KT 10SM FEW025 28/23 A2999 RMK AO2 LTG DSNT W SLP156 T02830228 10322 20283 53008
KHWO 172253Z 06009KT 10SM SCT027 28/22 A2998 RMK AO2 LTG DSNT W AND NW SLP150 T02830222
KHWO 172153Z 09009KT 10SM SCT028 29/23 A2997 RMK AO2 SLP147 T02890228
KHWO 172053Z 08011KT 10SM CLR 31/23 A2997 RMK AO2 SLP148 T03060228 55007
KHWO 171953Z 08009KT 10SM SCT032 31/23 A2997 RMK AO2 SLP147 T03060228
KHWO 171853Z 07010KT 10SM SCT034 31/23 A2996 RMK AO2 SLP146 T03110228
KHWO 171753Z 04007KT 10SM SCT034 SCT044 SCT065 32/22 A2999 RMK AO2 SLP155 T03170222 10317 20244 58017
KHWO 171653Z 08008KT 10SM FEW036 32/23 A3001 RMK AO2 SLP163 T03170228
KHWO 171553Z 09010KT 10SM BKN030 OVC039 31/23 A3003 RMK AO2 SLP170 T03110228
KHWO 171453Z 04006KT 10SM SCT023 31/23 A3004 RMK AO2 SLP172 T03060233 51015
KHWO 171353Z 35006KT 10SM FEW023 29/23 A3003 RMK AO2 SLP170 T02890233
KHWO 171253Z 02005KT 10SM CLR 27/23 A3002 RMK AO2 SLP164 T02720233
KHWO 171153Z 36004KT 10SM CLR 24/23 A3000 RMK AO2 SLP157 T02440228 10256 20239 53017
KHWO 171053Z 36004KT 10SM CLR 24/23 A2998 RMK AO2 SLP151 T02390228
KHWO 170953Z AUTO 00000KT 10SM CLR 24/23 A2996 RMK AO2 SLP144 T02440228
KHWO 170853Z AUTO 00000KT 10SM CLR 24/23 A2995 RMK AO2 SLP140 T02440228 56011
KHWO 170753Z AUTO 00000KT 10SM CLR 24/23 A2995 RMK AO2 SLP142 T02440228
KHWO 170653Z AUTO 00000KT 10SM CLR 26/23 A2996 RMK AO2 SLP145 T02560228
KHWO 170553Z AUTO 00000KT 10SM FEW024 26/23 A2998 RMK AO2 SLP151 T02560228 10278 20250 58003
KHWO 170453Z AUTO 00000KT 10SM CLR 26/23 A2998 RMK AO2 SLP151 T02610228 403170244
KHWO 170353Z AUTO 07003KT 10SM CLR 27/23 A2999 RMK AO2 SLP155 T02670228
KHWO 170253Z AUTO 11003KT 10SM FEW022 27/23 A2999 RMK AO2 SLP154 T02670228 51017
KHWO 170153Z AUTO 08003KT 10SM CLR 27/23 A2998 RMK AO2 SLP150 T02720228
KHWO 170053Z AUTO 08003KT 10SM CLR 27/23 A2996 RMK AO2 SLP145 T02720233
KHWO 162353Z AUTO 08005KT 10SM CLR 28/23 A2994 RMK AO2 SLP137 60000 T02780233 10317 20272 53007
KHWO 162253Z AUTO 09006KT 10SM CLR 28/23 A2993 RMK AO2 SLP133 T02830228
KHWO 162153Z AUTO 07007KT 10SM CLR 29/23 A2991 RMK AO2 SLP129 T02940228
KHWO 162053Z AUTO 09006KT 10SM FEW026 SCT034 29/23 A2992 RMK AO2 RAE1957 SLP130 P0000 60000 T02890228 58003
KHWO 161953Z 03005KT 10SM -RA FEW025 SCT036 BKN080 29/24 A2993 RMK AO2 WSHFT 1911 RAB34 TSB30E45 SLP133 P0000 T02890244
KHWO 161951Z 03005KT 10SM -RA FEW025 SCT036 OVC080 29/24 A2993 RMK AO2 WSHFT 1911 RAB34 TSB30E45 P0000
KHWO 161930Z 36008KT 10SM TS SCT031 SCT038 BKN049 28/23 A2993 RMK AO2 WSHFT 1911 TSB30 T02780233
KHWO 161853Z 09010KT 10SM FEW036 SCT060 BKN075 30/23 A2992 RMK AO2 SLP133 T03000228
KHWO 161753Z 06005KT 10SM CLR 32/23 A2995 RMK AO2 SLP141 T03170233 10317 20256 58023
KHWO 161653Z 06005KT 10SM FEW050 31/23 A2998 RMK AO2 SLP153 T03060228